• Join FlightAware (Why Join?)
  • Login
  • US Flag 
11:06AM EST


 

Airport Tracker/Info


-or-


 

Live Flight TrackerFlight Track Log ✈ SWA407 ✈ 04-Jul-2014 ✈ KSTL - KGRR

Flight Track Log - Related Links

Times and Time Zones

All times are in EDT time to prevent confusion due to time zone crossing. See the SWA407 flight status page for this flight to view local times or setup timezone preferences in your user account.

Time Position Orientation Groundspeed Altitude Reporting Facility
EDT Latitude Longitude Course Direction KTS MPH feet Rate Location/Type
07:36PM 38.7333 -90.3000 49° Northeast 183 211 2,300  Level Gateway (St. Louis) TRACON
07:37PM 38.7667 -90.2500 49° Northeast 235 270 4,400 1,920 Climbing Gateway (St. Louis) TRACON
07:38PM 38.8236 -90.2186 23° Northeast 262 302 6,200 3,000 Climbing Kansas City Center
07:39PM 38.8989 -90.1869 18° North 281 323 10,400 3,180 Climbing Kansas City Center
07:40PM 38.9950 -90.1469 18° North 323 372 12,700 2,580 Climbing Kansas City Center
07:41PM 39.0800 -90.1092 19° North 368 423 15,700 2,640 Climbing Kansas City Center
07:42PM 39.1817 -90.0628 19° North 383 441 18,200 2,880 Climbing Kansas City Center
07:43PM 39.3028 -90.0097 19° North 389 448 21,500 2,700 Climbing Kansas City Center
07:44PM 39.4075 -89.9536 22° Northeast 400 460 23,700 2,040 Climbing Kansas City Center
07:45PM 39.5114 -89.8853 27° Northeast 416 479 25,800 1,740 Climbing Kansas City Center
07:46PM 39.6192 -89.8164 26° Northeast 428 493 27,300 1,680 Climbing Kansas City Center
07:47PM 39.7325 -89.7433 26° Northeast 442 509 29,300 1,800 Climbing Kansas City Center
07:48PM 39.8342 -89.6581 33° Northeast 439 505 31,000 780 Climbing Kansas City Center
07:49PM 39.9228 -89.5453 44° Northeast 446 513 31,000  Level Kansas City Center
07:50PM 40.0117 -89.4319 44° Northeast 446 513 31,000 60 Level Kansas City Center
07:51PM 40.1003 -89.3178 45° Northeast 447 514 31,200 540 Climbing Kansas City Center
07:52PM 40.1883 -89.2056 44° Northeast 447 514 32,200 840 Climbing Kansas City Center
07:53PM 40.2756 -89.0942 44° Northeast 447 514 33,000 360 Climbing Kansas City Center
07:54PM 40.3844 -88.9756 40° Northeast 437 503 33,000  Level Chicago Center
07:55PM 40.4781 -88.8797 38° Northeast 432 497 33,000  Level Chicago Center
07:56PM 40.5747 -88.7578 44° Northeast 430 495 33,000  Level Chicago Center
07:58PM 40.6583 -88.6458 45° Northeast 429 494 33,000  Level Chicago Center
07:59PM 40.7431 -88.5339 45° Northeast 430 495 33,000  Level Chicago Center
08:00PM 40.8289 -88.4203 45° Northeast 433 498 33,000  Level Chicago Center
08:01PM 40.9133 -88.3053 46° Northeast 435 501 33,000  Level Chicago Center
08:02PM 40.9989 -88.1903 45° Northeast 439 505 33,000  Level Chicago Center
08:03PM 41.0828 -88.0753 46° Northeast 439 505 33,000  Level Chicago Center
08:04PM 41.1844 -87.9372 46° Northeast 440 506 33,000 -480 Level Chicago Center
08:05PM 41.2675 -87.8228 46° Northeast 439 505 32,100 -960 Descending Chicago Center
08:06PM 41.3506 -87.7081 46° Northeast 438 504 31,100 -1,020 Descending Chicago Center
08:07PM 41.4333 -87.5961 45° Northeast 435 501 30,100 -960 Descending Chicago Center
08:08PM 41.5178 -87.4792 46° Northeast 435 501 29,200 -900 Descending Chicago Center
08:09PM 41.6028 -87.3614 46° Northeast 441 507 28,300 -960 Descending Chicago Center
08:10PM 41.6869 -87.2397 47° Northeast 444 511 27,300 -960 Descending Chicago Center
08:11PM 41.7556 -87.0989 57° Northeast 451 519 26,400 -1,080 Descending Chicago Center
08:12PM 41.8436 -86.9319 55° Northeast 454 522 25,200 -1,740 Descending Chicago Center
08:13PM 41.9119 -86.7975 56° Northeast 445 512 22,900 -2,100 Descending Chicago Center
08:14PM 41.9728 -86.6806 55° Northeast 423 487 21,000 -1,380 Descending Chicago Center
08:15PM 42.0514 -86.5794 44° Northeast 392 451 20,100 -960 Descending Chicago Center
08:16PM 42.1333 -86.4775 43° Northeast 398 458 19,100 -1,680 Descending Chicago Center
08:17PM 42.2131 -86.3772 43° Northeast 397 457 16,800 -2,700 Descending Chicago Center
08:18PM 42.2997 -86.2678 43° Northeast 381 438 13,700 -2,760 Descending Chicago Center
08:19PM 42.3731 -86.1747 43° Northeast 367 422 11,300 -1,380 Descending Chicago Center
08:20PM 42.4375 -86.0928 43° Northeast 331 381 10,900 -180 Descending Chicago Center
08:21PM 42.4889 -86.0169 47° Northeast 288 331 11,000 -480 Climbing Chicago Center
08:22PM 42.5364 -85.9311 53° Northeast 286 329 10,000 -1,500 Descending Chicago Center
08:23PM 42.5850 -85.8464 52° Northeast 286 329 8,000 -1,680 Descending Chicago Center
08:24PM 42.6317 -85.7678 51° Northeast 278 320 6,600 -1,320 Descending Chicago Center
08:25PM 42.6747 -85.6931 52° Northeast 261 300 5,400 -1,140 Descending Chicago Center
08:26PM 42.7300 -85.6217 43° Northeast 235 270 4,400 -1,020 Descending Chicago Center
08:27PM 42.7722 -85.5672 43° Northeast 217 250 3,400 -1,140 Descending Chicago Center
08:28PM 42.8072 -85.5192 45° Northeast 193 222 2,200 -1,080 Descending Chicago Center
08:29PM 42.8431 -85.5075 13° North 159 183 1,300 -660 Descending Chicago Center
08:30PM 42.8739 -85.5133 352° North 145 167 900 -420 Descending Chicago Center
08:32PM 42.8667 -85.5167 48° Northeast  Level FlightAware Approximate